sensor_id;sensor_type;location;lat;lon;timestamp;P1;durP1;ratioP1;P2;durP2;ratioP2
74196;SDS011;62555;52.678;4.900;2023-02-15T00:01:35;9.32;;;8.38;;
74196;SDS011;62555;52.678;4.900;2023-02-15T00:04:01;8.75;;;7.85;;
74196;SDS011;62555;52.678;4.900;2023-02-15T00:06:27;9.50;;;8.60;;
74196;SDS011;62555;52.678;4.900;2023-02-15T00:08:53;9.85;;;8.95;;
74196;SDS011;62555;52.678;4.900;2023-02-15T00:11:19;9.45;;;8.43;;
74196;SDS011;62555;52.678;4.900;2023-02-15T00:14:08;8.95;;;8.05;;
74196;SDS011;62555;52.678;4.900;2023-02-15T00:16:36;10.25;;;9.32;;
74196;SDS011;62555;52.678;4.900;2023-02-15T00:19:02;9.55;;;8.60;;
74196;SDS011;62555;52.678;4.900;2023-02-15T00:21:29;10.10;;;8.82;;
74196;SDS011;62555;52.678;4.900;2023-02-15T00:23:57;8.48;;;7.68;;
74196;SDS011;62555;52.678;4.900;2023-02-15T00:28:49;9.10;;;8.20;;
74196;SDS011;62555;52.678;4.900;2023-02-15T00:31:14;8.25;;;7.45;;
74196;SDS011;62555;52.678;4.900;2023-02-15T00:33:39;8.10;;;7.30;;
74196;SDS011;62555;52.678;4.900;2023-02-15T00:36:06;8.48;;;7.68;;
74196;SDS011;62555;52.678;4.900;2023-02-15T00:38:33;8.38;;;7.57;;
74196;SDS011;62555;52.678;4.900;2023-02-15T00:41:00;8.90;;;7.80;;
74196;SDS011;62555;52.678;4.900;2023-02-15T00:45:52;8.98;;;8.10;;
74196;SDS011;62555;52.678;4.900;2023-02-15T00:48:18;7.57;;;6.93;;
74196;SDS011;62555;52.678;4.900;2023-02-15T00:50:51;8.55;;;7.75;;
74196;SDS011;62555;52.678;4.900;2023-02-15T00:53:17;8.55;;;7.75;;
74196;SDS011;62555;52.678;4.900;2023-02-15T00:55:43;8.77;;;7.95;;
74196;SDS011;62555;52.678;4.900;2023-02-15T00:58:09;8.43;;;7.63;;
74196;SDS011;62555;52.678;4.900;2023-02-15T01:00:35;7.68;;;7.07;;
74196;SDS011;62555;52.678;4.900;2023-02-15T01:03:01;7.75;;;6.93;;
74196;SDS011;62555;52.678;4.900;2023-02-15T01:05:26;7.32;;;6.63;;
74196;SDS011;62555;52.678;4.900;2023-02-15T01:07:52;7.53;;;6.70;;
74196;SDS011;62555;52.678;4.900;2023-02-15T01:10:17;8.07;;;7.30;;
74196;SDS011;62555;52.678;4.900;2023-02-15T01:12:42;8.30;;;7.50;;
74196;SDS011;62555;52.678;4.900;2023-02-15T01:15:08;8.27;;;7.47;;
74196;SDS011;62555;52.678;4.900;2023-02-15T01:17:33;7.72;;;7.03;;
74196;SDS011;62555;52.678;4.900;2023-02-15T01:19:59;7.60;;;6.95;;
74196;SDS011;62555;52.678;4.900;2023-02-15T01:22:24;7.32;;;6.72;;
74196;SDS011;62555;52.678;4.900;2023-02-15T01:24:50;7.43;;;6.72;;
74196;SDS011;62555;52.678;4.900;2023-02-15T01:27:15;7.43;;;6.80;;
74196;SDS011;62555;52.678;4.900;2023-02-15T01:29:41;8.20;;;7.50;;
74196;SDS011;62555;52.678;4.900;2023-02-15T01:32:06;6.88;;;6.20;;
74196;SDS011;62555;52.678;4.900;2023-02-15T01:34:31;7.88;;;7.00;;
74196;SDS011;62555;52.678;4.900;2023-02-15T01:36:57;8.02;;;7.32;;
74196;SDS011;62555;52.678;4.900;2023-02-15T01:39:22;6.82;;;6.22;;
74196;SDS011;62555;52.678;4.900;2023-02-15T01:41:47;7.07;;;6.38;;
74196;SDS011;62555;52.678;4.900;2023-02-15T01:47:10;7.70;;;7.00;;
74196;SDS011;62555;52.678;4.900;2023-02-15T01:49:38;6.97;;;6.28;;
74196;SDS011;62555;52.678;4.900;2023-02-15T01:52:06;7.05;;;6.45;;
74196;SDS011;62555;52.678;4.900;2023-02-15T01:54:32;7.28;;;6.68;;
74196;SDS011;62555;52.678;4.900;2023-02-15T01:57:02;7.05;;;6.45;;
74196;SDS011;62555;52.678;4.900;2023-02-15T01:59:29;6.72;;;6.13;;
74196;SDS011;62555;52.678;4.900;2023-02-15T02:01:57;7.05;;;6.45;;
74196;SDS011;62555;52.678;4.900;2023-02-15T02:07:00;6.25;;;5.68;;
74196;SDS011;62555;52.678;4.900;2023-02-15T02:09:27;6.38;;;5.78;;
74196;SDS011;62555;52.678;4.900;2023-02-15T02:11:53;6.80;;;6.30;;
74196;SDS011;62555;52.678;4.900;2023-02-15T02:14:19;7.03;;;6.38;;
74196;SDS011;62555;52.678;4.900;2023-02-15T02:16:49;6.65;;;6.15;;
74196;SDS011;62555;52.678;4.900;2023-02-15T02:24:58;6.55;;;5.95;;
74196;SDS011;62555;52.678;4.900;2023-02-15T02:35:56;6.05;;;5.50;;
74196;SDS011;62555;52.678;4.900;2023-02-15T02:38:32;5.80;;;5.30;;
74196;SDS011;62555;52.678;4.900;2023-02-15T02:43:37;6.40;;;5.90;;
74196;SDS011;62555;52.678;4.900;2023-02-15T02:46:10;6.30;;;5.80;;
74196;SDS011;62555;52.678;4.900;2023-02-15T02:48:39;6.60;;;6.00;;
74196;SDS011;62555;52.678;4.900;2023-02-15T02:51:04;6.10;;;5.70;;
74196;SDS011;62555;52.678;4.900;2023-02-15T02:53:30;5.30;;;4.90;;
74196;SDS011;62555;52.678;4.900;2023-02-15T02:55:58;6.03;;;5.53;;
74196;SDS011;62555;52.678;4.900;2023-02-15T02:58:35;6.47;;;5.97;;
74196;SDS011;62555;52.678;4.900;2023-02-15T03:01:05;6.63;;;6.13;;
74196;SDS011;62555;52.678;4.900;2023-02-15T03:03:35;5.88;;;5.38;;
74196;SDS011;62555;52.678;4.900;2023-02-15T03:06:07;6.80;;;6.20;;
74196;SDS011;62555;52.678;4.900;2023-02-15T03:08:38;6.80;;;6.20;;
74196;SDS011;62555;52.678;4.900;2023-02-15T03:11:06;6.95;;;6.35;;
74196;SDS011;62555;52.678;4.900;2023-02-15T03:13:31;5.95;;;5.45;;
74196;SDS011;62555;52.678;4.900;2023-02-15T03:15:57;6.30;;;5.70;;
74196;SDS011;62555;52.678;4.900;2023-02-15T03:18:43;5.88;;;5.38;;
74196;SDS011;62555;52.678;4.900;2023-02-15T03:21:17;5.88;;;5.32;;
74196;SDS011;62555;52.678;4.900;2023-02-15T03:23:48;5.95;;;5.43;;
74196;SDS011;62555;52.678;4.900;2023-02-15T03:26:16;5.90;;;5.40;;
74196;SDS011;62555;52.678;4.900;2023-02-15T03:28:42;5.55;;;5.05;;
74196;SDS011;62555;52.678;4.900;2023-02-15T03:33:35;5.63;;;5.22;;
74196;SDS011;62555;52.678;4.900;2023-02-15T03:36:11;5.75;;;5.25;;
74196;SDS011;62555;52.678;4.900;2023-02-15T03:38:46;5.57;;;5.03;;
74196;SDS011;62555;52.678;4.900;2023-02-15T03:41:16;5.90;;;5.40;;
74196;SDS011;62555;52.678;4.900;2023-02-15T03:43:45;6.13;;;5.63;;
74196;SDS011;62555;52.678;4.900;2023-02-15T03:46:20;5.25;;;4.85;;
74196;SDS011;62555;52.678;4.900;2023-02-15T03:49:05;6.40;;;5.80;;
74196;SDS011;62555;52.678;4.900;2023-02-15T03:51:33;6.65;;;6.15;;
74196;SDS011;62555;52.678;4.900;2023-02-15T03:54:02;6.05;;;5.45;;
74196;SDS011;62555;52.678;4.900;2023-02-15T03:56:30;6.80;;;6.20;;
74196;SDS011;62555;52.678;4.900;2023-02-15T03:58:56;5.50;;;5.10;;
74196;SDS011;62555;52.678;4.900;2023-02-15T04:04:56;5.63;;;5.20;;
74196;SDS011;62555;52.678;4.900;2023-02-15T04:07:21;6.38;;;5.88;;
74196;SDS011;62555;52.678;4.900;2023-02-15T04:09:47;5.35;;;4.85;;
74196;SDS011;62555;52.678;4.900;2023-02-15T04:12:30;6.15;;;5.65;;
74196;SDS011;62555;52.678;4.900;2023-02-15T04:14:56;5.88;;;5.28;;
74196;SDS011;62555;52.678;4.900;2023-02-15T04:17:39;6.82;;;6.30;;
74196;SDS011;62555;52.678;4.900;2023-02-15T04:20:05;5.78;;;5.28;;
74196;SDS011;62555;52.678;4.900;2023-02-15T04:22:49;6.70;;;5.97;;
74196;SDS011;62555;52.678;4.900;2023-02-15T04:25:33;7.03;;;6.43;;
74196;SDS011;62555;52.678;4.900;2023-02-15T04:27:59;5.72;;;5.10;;
74196;SDS011;62555;52.678;4.900;2023-02-15T04:30:25;5.65;;;5.15;;
74196;SDS011;62555;52.678;4.900;2023-02-15T04:32:51;5.82;;;5.32;;
74196;SDS011;62555;52.678;4.900;2023-02-15T04:35:17;7.28;;;6.57;;
74196;SDS011;62555;52.678;4.900;2023-02-15T04:37:42;6.35;;;5.75;;
74196;SDS011;62555;52.678;4.900;2023-02-15T04:40:09;6.10;;;5.47;;
74196;SDS011;62555;52.678;4.900;2023-02-15T04:42:36;5.70;;;5.20;;
74196;SDS011;62555;52.678;4.900;2023-02-15T04:45:01;5.57;;;5.07;;
74196;SDS011;62555;52.678;4.900;2023-02-15T04:47:27;5.03;;;4.63;;
74196;SDS011;62555;52.678;4.900;2023-02-15T04:49:52;5.97;;;5.38;;
74196;SDS011;62555;52.678;4.900;2023-02-15T04:52:18;6.65;;;6.15;;
74196;SDS011;62555;52.678;4.900;2023-02-15T04:54:43;6.05;;;5.45;;
74196;SDS011;62555;52.678;4.900;2023-02-15T04:57:09;5.63;;;5.10;;
74196;SDS011;62555;52.678;4.900;2023-02-15T04:59:34;5.60;;;5.10;;
74196;SDS011;62555;52.678;4.900;2023-02-15T05:02:00;5.65;;;5.15;;
74196;SDS011;62555;52.678;4.900;2023-02-15T05:04:25;6.05;;;5.55;;
74196;SDS011;62555;52.678;4.900;2023-02-15T05:06:51;6.32;;;5.80;;
74196;SDS011;62555;52.678;4.900;2023-02-15T05:09:16;6.00;;;5.38;;
74196;SDS011;62555;52.678;4.900;2023-02-15T05:11:42;5.30;;;4.80;;
74196;SDS011;62555;52.678;4.900;2023-02-15T05:14:07;6.15;;;5.65;;
74196;SDS011;62555;52.678;4.900;2023-02-15T05:16:32;6.55;;;6.05;;
74196;SDS011;62555;52.678;4.900;2023-02-15T05:18:58;5.05;;;4.68;;
74196;SDS011;62555;52.678;4.900;2023-02-15T05:21:23;5.45;;;4.95;;
74196;SDS011;62555;52.678;4.900;2023-02-15T05:23:49;5.95;;;5.45;;
74196;SDS011;62555;52.678;4.900;2023-02-15T05:26:18;5.80;;;5.28;;
74196;SDS011;62555;52.678;4.900;2023-02-15T05:29:04;6.30;;;5.70;;
74196;SDS011;62555;52.678;4.900;2023-02-15T05:31:30;6.32;;;5.75;;
74196;SDS011;62555;52.678;4.900;2023-02-15T05:33:55;5.63;;;5.22;;
74196;SDS011;62555;52.678;4.900;2023-02-15T05:36:21;4.70;;;4.22;;
74196;SDS011;62555;52.678;4.900;2023-02-15T05:38:46;6.75;;;6.15;;
74196;SDS011;62555;52.678;4.900;2023-02-15T05:41:11;4.95;;;4.55;;
74196;SDS011;62555;52.678;4.900;2023-02-15T05:43:37;4.90;;;4.43;;
74196;SDS011;62555;52.678;4.900;2023-02-15T05:46:03;5.82;;;5.25;;
74196;SDS011;62555;52.678;4.900;2023-02-15T05:48:28;5.75;;;5.03;;
74196;SDS011;62555;52.678;4.900;2023-02-15T05:53:28;5.40;;;5.00;;
74196;SDS011;62555;52.678;4.900;2023-02-15T05:55:54;5.47;;;5.07;;
74196;SDS011;62555;52.678;4.900;2023-02-15T05:58:24;4.90;;;4.50;;
74196;SDS011;62555;52.678;4.900;2023-02-15T06:00:53;5.78;;;5.28;;
74196;SDS011;62555;52.678;4.900;2023-02-15T06:03:18;4.93;;;4.53;;
74196;SDS011;62555;52.678;4.900;2023-02-15T06:05:44;6.05;;;5.53;;
74196;SDS011;62555;52.678;4.900;2023-02-15T06:08:09;6.22;;;5.68;;
74196;SDS011;62555;52.678;4.900;2023-02-15T06:10:34;4.95;;;4.50;;
74196;SDS011;62555;52.678;4.900;2023-02-15T06:13:00;5.32;;;4.82;;
74196;SDS011;62555;52.678;4.900;2023-02-15T06:15:25;5.30;;;4.80;;
74196;SDS011;62555;52.678;4.900;2023-02-15T06:17:51;5.88;;;5.38;;
74196;SDS011;62555;52.678;4.900;2023-02-15T06:20:16;6.25;;;5.68;;
74196;SDS011;62555;52.678;4.900;2023-02-15T06:22:42;5.40;;;4.85;;
74196;SDS011;62555;52.678;4.900;2023-02-15T06:25:07;5.60;;;5.05;;
74196;SDS011;62555;52.678;4.900;2023-02-15T06:27:35;5.38;;;4.82;;
74196;SDS011;62555;52.678;4.900;2023-02-15T06:30:00;5.35;;;4.85;;
74196;SDS011;62555;52.678;4.900;2023-02-15T06:32:26;4.82;;;4.43;;
74196;SDS011;62555;52.678;4.900;2023-02-15T06:34:51;6.97;;;6.03;;
74196;SDS011;62555;52.678;4.900;2023-02-15T06:37:16;5.25;;;4.72;;
74196;SDS011;62555;52.678;4.900;2023-02-15T06:39:42;6.10;;;5.15;;
74196;SDS011;62555;52.678;4.900;2023-02-15T06:42:07;5.03;;;4.53;;
74196;SDS011;62555;52.678;4.900;2023-02-15T06:44:33;6.93;;;6.20;;
74196;SDS011;62555;52.678;4.900;2023-02-15T06:46:58;5.68;;;5.07;;
74196;SDS011;62555;52.678;4.900;2023-02-15T06:49:24;6.10;;;5.50;;
74196;SDS011;62555;52.678;4.900;2023-02-15T06:51:49;6.28;;;5.68;;
74196;SDS011;62555;52.678;4.900;2023-02-15T06:54:14;5.95;;;5.35;;
74196;SDS011;62555;52.678;4.900;2023-02-15T06:56:39;6.53;;;5.88;;
74196;SDS011;62555;52.678;4.900;2023-02-15T06:59:05;6.40;;;5.55;;
74196;SDS011;62555;52.678;4.900;2023-02-15T07:01:30;6.78;;;5.63;;
74196;SDS011;62555;52.678;4.900;2023-02-15T07:03:55;6.25;;;5.13;;
74196;SDS011;62555;52.678;4.900;2023-02-15T07:06:21;6.05;;;5.45;;
74196;SDS011;62555;52.678;4.900;2023-02-15T07:08:46;5.95;;;5.35;;
74196;SDS011;62555;52.678;4.900;2023-02-15T07:11:12;6.20;;;5.40;;
74196;SDS011;62555;52.678;4.900;2023-02-15T07:13:55;6.93;;;6.20;;
74196;SDS011;62555;52.678;4.900;2023-02-15T07:16:21;5.28;;;4.78;;
74196;SDS011;62555;52.678;4.900;2023-02-15T07:18:47;6.80;;;6.20;;
74196;SDS011;62555;52.678;4.900;2023-02-15T07:21:12;6.75;;;5.72;;
74196;SDS011;62555;52.678;4.900;2023-02-15T07:23:38;6.78;;;5.22;;
74196;SDS011;62555;52.678;4.900;2023-02-15T07:26:04;6.45;;;5.22;;
74196;SDS011;62555;52.678;4.900;2023-02-15T07:28:30;7.10;;;5.55;;
74196;SDS011;62555;52.678;4.900;2023-02-15T07:30:56;5.25;;;4.75;;
74196;SDS011;62555;52.678;4.900;2023-02-15T07:33:22;6.43;;;5.43;;
74196;SDS011;62555;52.678;4.900;2023-02-15T07:35:48;5.50;;;4.68;;
74196;SDS011;62555;52.678;4.900;2023-02-15T07:38:14;5.45;;;4.82;;
74196;SDS011;62555;52.678;4.900;2023-02-15T07:40:39;5.07;;;4.57;;
74196;SDS011;62555;52.678;4.900;2023-02-15T07:43:05;4.57;;;3.60;;
74196;SDS011;62555;52.678;4.900;2023-02-15T07:45:30;4.25;;;3.92;;
74196;SDS011;62555;52.678;4.900;2023-02-15T07:47:56;4.47;;;3.78;;
74196;SDS011;62555;52.678;4.900;2023-02-15T07:50:21;4.28;;;3.88;;
74196;SDS011;62555;52.678;4.900;2023-02-15T07:52:47;5.38;;;4.05;;
74196;SDS011;62555;52.678;4.900;2023-02-15T07:55:12;4.65;;;4.00;;
74196;SDS011;62555;52.678;4.900;2023-02-15T07:57:41;4.72;;;3.85;;
74196;SDS011;62555;52.678;4.900;2023-02-15T08:00:08;5.03;;;4.57;;
74196;SDS011;62555;52.678;4.900;2023-02-15T08:02:33;5.55;;;4.30;;
74196;SDS011;62555;52.678;4.900;2023-02-15T08:05:01;5.38;;;4.30;;
74196;SDS011;62555;52.678;4.900;2023-02-15T08:07:27;4.15;;;3.75;;
74196;SDS011;62555;52.678;4.900;2023-02-15T08:09:52;5.47;;;4.10;;
74196;SDS011;62555;52.678;4.900;2023-02-15T08:12:18;4.63;;;4.13;;
74196;SDS011;62555;52.678;4.900;2023-02-15T08:14:44;4.07;;;3.67;;
74196;SDS011;62555;52.678;4.900;2023-02-15T08:17:09;5.80;;;4.60;;
74196;SDS011;62555;52.678;4.900;2023-02-15T08:19:35;5.78;;;4.28;;
74196;SDS011;62555;52.678;4.900;2023-02-15T08:22:04;5.47;;;4.15;;
74196;SDS011;62555;52.678;4.900;2023-02-15T08:24:32;5.28;;;3.88;;
74196;SDS011;62555;52.678;4.900;2023-02-15T08:26:58;5.72;;;4.50;;
74196;SDS011;62555;52.678;4.900;2023-02-15T08:29:25;5.63;;;4.30;;
74196;SDS011;62555;52.678;4.900;2023-02-15T08:31:56;4.53;;;3.65;;
74196;SDS011;62555;52.678;4.900;2023-02-15T08:34:28;5.22;;;3.70;;
74196;SDS011;62555;52.678;4.900;2023-02-15T08:36:54;5.57;;;4.53;;
74196;SDS011;62555;52.678;4.900;2023-02-15T08:39:19;5.97;;;5.15;;
74196;SDS011;62555;52.678;4.900;2023-02-15T08:41:45;4.93;;;4.28;;
74196;SDS011;62555;52.678;4.900;2023-02-15T08:44:12;4.47;;;3.72;;
74196;SDS011;62555;52.678;4.900;2023-02-15T08:46:38;5.75;;;4.07;;
74196;SDS011;62555;52.678;4.900;2023-02-15T08:49:06;5.13;;;3.83;;
74196;SDS011;62555;52.678;4.900;2023-02-15T08:51:33;4.70;;;4.00;;
74196;SDS011;62555;52.678;4.900;2023-02-15T08:54:00;5.80;;;3.90;;
74196;SDS011;62555;52.678;4.900;2023-02-15T08:56:28;4.78;;;4.35;;
74196;SDS011;62555;52.678;4.900;2023-02-15T08:58:56;5.13;;;4.38;;
74196;SDS011;62555;52.678;4.900;2023-02-15T09:01:23;5.05;;;4.55;;
74196;SDS011;62555;52.678;4.900;2023-02-15T09:03:56;4.95;;;4.47;;
74196;SDS011;62555;52.678;4.900;2023-02-15T09:06:26;4.85;;;4.10;;
74196;SDS011;62555;52.678;4.900;2023-02-15T09:08:52;8.45;;;4.63;;
74196;SDS011;62555;52.678;4.900;2023-02-15T09:11:19;5.55;;;4.97;;
74196;SDS011;62555;52.678;4.900;2023-02-15T09:13:56;5.40;;;4.80;;
74196;SDS011;62555;52.678;4.900;2023-02-15T09:16:23;6.60;;;4.53;;
74196;SDS011;62555;52.678;4.900;2023-02-15T09:18:50;5.97;;;4.82;;
74196;SDS011;62555;52.678;4.900;2023-02-15T09:21:17;6.18;;;4.78;;
74196;SDS011;62555;52.678;4.900;2023-02-15T09:23:44;5.35;;;4.55;;
74196;SDS011;62555;52.678;4.900;2023-02-15T09:26:12;7.03;;;5.43;;
74196;SDS011;62555;52.678;4.900;2023-02-15T09:28:39;6.53;;;5.10;;
74196;SDS011;62555;52.678;4.900;2023-02-15T09:31:15;6.78;;;4.60;;
74196;SDS011;62555;52.678;4.900;2023-02-15T09:33:45;6.05;;;5.45;;
74196;SDS011;62555;52.678;4.900;2023-02-15T09:36:15;5.68;;;4.97;;
74196;SDS011;62555;52.678;4.900;2023-02-15T09:38:46;6.88;;;5.30;;
74196;SDS011;62555;52.678;4.900;2023-02-15T09:41:23;5.90;;;5.30;;
74196;SDS011;62555;52.678;4.900;2023-02-15T09:44:03;6.25;;;5.00;;
74196;SDS011;62555;52.678;4.900;2023-02-15T09:49:40;5.60;;;5.07;;
74196;SDS011;62555;52.678;4.900;2023-02-15T09:54:43;9.03;;;6.03;;
74196;SDS011;62555;52.678;4.900;2023-02-15T10:02:21;8.37;;;6.33;;
74196;SDS011;62555;52.678;4.900;2023-02-15T10:07:37;8.30;;;6.32;;
74196;SDS011;62555;52.678;4.900;2023-02-15T10:21:28;6.00;;;5.25;;
74196;SDS011;62555;52.678;4.900;2023-02-15T10:24:09;10.80;;;7.15;;
74196;SDS011;62555;52.678;4.900;2023-02-15T10:26:49;13.88;;;9.45;;
74196;SDS011;62555;52.678;4.900;2023-02-15T10:32:13;12.40;;;8.02;;
74196;SDS011;62555;52.678;4.900;2023-02-15T10:34:56;9.45;;;7.70;;
74196;SDS011;62555;52.678;4.900;2023-02-15T10:37:57;14.15;;;8.10;;
74196;SDS011;62555;52.678;4.900;2023-02-15T10:45:49;14.80;;;8.20;;
74196;SDS011;62555;52.678;4.900;2023-02-15T10:54:27;11.38;;;7.00;;
74196;SDS011;62555;52.678;4.900;2023-02-15T10:57:10;15.82;;;7.95;;
74196;SDS011;62555;52.678;4.900;2023-02-15T11:00:21;9.55;;;7.15;;
74196;SDS011;62555;52.678;4.900;2023-02-15T11:07:38;9.48;;;7.35;;
74196;SDS011;62555;52.678;4.900;2023-02-15T11:13:14;9.65;;;7.50;;
74196;SDS011;62555;52.678;4.900;2023-02-15T11:15:44;10.52;;;8.80;;
74196;SDS011;62555;52.678;4.900;2023-02-15T11:20:57;9.77;;;6.93;;
74196;SDS011;62555;52.678;4.900;2023-02-15T11:23:24;9.27;;;7.57;;
74196;SDS011;62555;52.678;4.900;2023-02-15T11:25:58;10.40;;;8.10;;
74196;SDS011;62555;52.678;4.900;2023-02-15T11:28:27;11.43;;;8.15;;
74196;SDS011;62555;52.678;4.900;2023-02-15T11:30:55;9.82;;;7.43;;
74196;SDS011;62555;52.678;4.900;2023-02-15T11:33:27;9.95;;;8.15;;
74196;SDS011;62555;52.678;4.900;2023-02-15T11:35:59;10.60;;;8.05;;
74196;SDS011;62555;52.678;4.900;2023-02-15T11:38:29;11.48;;;8.30;;
74196;SDS011;62555;52.678;4.900;2023-02-15T11:41:04;11.38;;;8.73;;
74196;SDS011;62555;52.678;4.900;2023-02-15T11:43:36;11.80;;;9.50;;
74196;SDS011;62555;52.678;4.900;2023-02-15T11:46:03;11.45;;;8.85;;
74196;SDS011;62555;52.678;4.900;2023-02-15T11:48:29;10.90;;;8.30;;
74196;SDS011;62555;52.678;4.900;2023-02-15T11:50:55;11.63;;;8.57;;
74196;SDS011;62555;52.678;4.900;2023-02-15T11:53:21;14.20;;;9.57;;
74196;SDS011;62555;52.678;4.900;2023-02-15T11:55:50;13.48;;;10.50;;
74196;SDS011;62555;52.678;4.900;2023-02-15T11:58:28;12.95;;;10.75;;
74196;SDS011;62555;52.678;4.900;2023-02-15T12:00:58;13.40;;;9.88;;
74196;SDS011;62555;52.678;4.900;2023-02-15T12:03:29;13.93;;;10.65;;
74196;SDS011;62555;52.678;4.900;2023-02-15T12:06:27;13.73;;;10.27;;
74196;SDS011;62555;52.678;4.900;2023-02-15T12:09:14;16.10;;;9.90;;
74196;SDS011;62555;52.678;4.900;2023-02-15T12:11:44;14.32;;;9.85;;
74196;SDS011;62555;52.678;4.900;2023-02-15T12:14:10;13.45;;;9.75;;
74196;SDS011;62555;52.678;4.900;2023-02-15T12:16:41;15.98;;;9.93;;
74196;SDS011;62555;52.678;4.900;2023-02-15T12:19:11;13.98;;;10.18;;
74196;SDS011;62555;52.678;4.900;2023-02-15T12:21:44;13.10;;;9.98;;
74196;SDS011;62555;52.678;4.900;2023-02-15T12:24:18;15.90;;;11.15;;
74196;SDS011;62555;52.678;4.900;2023-02-15T12:26:55;13.95;;;10.10;;
74196;SDS011;62555;52.678;4.900;2023-02-15T12:29:26;12.52;;;10.80;;
74196;SDS011;62555;52.678;4.900;2023-02-15T12:31:54;17.00;;;11.73;;
74196;SDS011;62555;52.678;4.900;2023-02-15T12:34:25;12.98;;;10.40;;
74196;SDS011;62555;52.678;4.900;2023-02-15T12:36:53;15.00;;;10.98;;
74196;SDS011;62555;52.678;4.900;2023-02-15T12:39:24;15.65;;;11.70;;
74196;SDS011;62555;52.678;4.900;2023-02-15T12:44:21;14.65;;;10.45;;
74196;SDS011;62555;52.678;4.900;2023-02-15T12:49:30;13.10;;;10.35;;
74196;SDS011;62555;52.678;4.900;2023-02-15T12:51:57;16.02;;;12.25;;
74196;SDS011;62555;52.678;4.900;2023-02-15T12:56:50;17.87;;;12.27;;
74196;SDS011;62555;52.678;4.900;2023-02-15T12:59:15;17.75;;;12.63;;
74196;SDS011;62555;52.678;4.900;2023-02-15T13:01:45;19.02;;;13.02;;
74196;SDS011;62555;52.678;4.900;2023-02-15T13:07:09;15.35;;;11.32;;
74196;SDS011;62555;52.678;4.900;2023-02-15T13:09:37;16.33;;;12.45;;
74196;SDS011;62555;52.678;4.900;2023-02-15T13:12:25;18.45;;;12.15;;
74196;SDS011;62555;52.678;4.900;2023-02-15T13:14:53;16.92;;;12.18;;
74196;SDS011;62555;52.678;4.900;2023-02-15T13:17:30;15.30;;;11.77;;
74196;SDS011;62555;52.678;4.900;2023-02-15T13:22:45;14.10;;;11.80;;
74196;SDS011;62555;52.678;4.900;2023-02-15T13:25:13;13.40;;;11.07;;
74196;SDS011;62555;52.678;4.900;2023-02-15T13:27:41;14.93;;;11.55;;
74196;SDS011;62555;52.678;4.900;2023-02-15T13:30:13;15.13;;;11.05;;
74196;SDS011;62555;52.678;4.900;2023-02-15T13:32:44;15.35;;;11.80;;
74196;SDS011;62555;52.678;4.900;2023-02-15T13:35:14;16.40;;;11.23;;
74196;SDS011;62555;52.678;4.900;2023-02-15T13:37:56;14.02;;;10.70;;
74196;SDS011;62555;52.678;4.900;2023-02-15T13:54:33;14.88;;;11.00;;
74196;SDS011;62555;52.678;4.900;2023-02-15T14:05:19;14.45;;;10.00;;
74196;SDS011;62555;52.678;4.900;2023-02-15T14:24:33;16.40;;;11.40;;
74196;SDS011;62555;52.678;4.900;2023-02-15T14:35:01;15.35;;;10.98;;
74196;SDS011;62555;52.678;4.900;2023-02-15T14:37:36;14.90;;;11.18;;
74196;SDS011;62555;52.678;4.900;2023-02-15T14:48:53;13.15;;;10.48;;
74196;SDS011;62555;52.678;4.900;2023-02-15T14:56:45;12.23;;;10.45;;
74196;SDS011;62555;52.678;4.900;2023-02-15T14:59:21;14.48;;;11.00;;
74196;SDS011;62555;52.678;4.900;2023-02-15T15:04:43;11.90;;;10.50;;
74196;SDS011;62555;52.678;4.900;2023-02-15T15:12:41;13.82;;;11.10;;
74196;SDS011;62555;52.678;4.900;2023-02-15T15:15:10;13.90;;;11.07;;
74196;SDS011;62555;52.678;4.900;2023-02-15T15:20:42;13.27;;;11.13;;
74196;SDS011;62555;52.678;4.900;2023-02-15T15:28:15;15.88;;;10.95;;
74196;SDS011;62555;52.678;4.900;2023-02-15T15:45:33;13.75;;;11.68;;
74196;SDS011;62555;52.678;4.900;2023-02-15T15:48:26;15.48;;;12.95;;
74196;SDS011;62555;52.678;4.900;2023-02-15T15:50:57;17.33;;;12.55;;
74196;SDS011;62555;52.678;4.900;2023-02-15T15:53:25;15.45;;;12.60;;
74196;SDS011;62555;52.678;4.900;2023-02-15T15:55:54;15.32;;;12.07;;
74196;SDS011;62555;52.678;4.900;2023-02-15T15:58:22;15.55;;;14.00;;
74196;SDS011;62555;52.678;4.900;2023-02-15T16:00:49;17.58;;;13.63;;
74196;SDS011;62555;52.678;4.900;2023-02-15T16:03:21;16.17;;;12.82;;
74196;SDS011;62555;52.678;4.900;2023-02-15T16:05:47;16.50;;;12.43;;
74196;SDS011;62555;52.678;4.900;2023-02-15T16:08:25;16.35;;;13.63;;
74196;SDS011;62555;52.678;4.900;2023-02-15T16:10:54;18.30;;;13.27;;
74196;SDS011;62555;52.678;4.900;2023-02-15T16:13:20;18.23;;;13.95;;
74196;SDS011;62555;52.678;4.900;2023-02-15T16:15:46;16.60;;;12.95;;
74196;SDS011;62555;52.678;4.900;2023-02-15T16:18:17;16.08;;;12.57;;
74196;SDS011;62555;52.678;4.900;2023-02-15T16:20:49;15.40;;;12.70;;
74196;SDS011;62555;52.678;4.900;2023-02-15T16:23:40;15.05;;;12.02;;
74196;SDS011;62555;52.678;4.900;2023-02-15T16:26:44;15.32;;;11.73;;
74196;SDS011;62555;52.678;4.900;2023-02-15T16:29:30;15.60;;;12.25;;
74196;SDS011;62555;52.678;4.900;2023-02-15T16:32:15;13.50;;;11.73;;
74196;SDS011;62555;52.678;4.900;2023-02-15T16:35:01;16.05;;;12.75;;
74196;SDS011;62555;52.678;4.900;2023-02-15T16:37:31;16.38;;;13.10;;
74196;SDS011;62555;52.678;4.900;2023-02-15T16:39:57;14.05;;;11.93;;
74196;SDS011;62555;52.678;4.900;2023-02-15T16:42:23;34.40;;;21.85;;
74196;SDS011;62555;52.678;4.900;2023-02-15T16:44:50;47.25;;;32.50;;
74196;SDS011;62555;52.678;4.900;2023-02-15T16:49:53;46.72;;;31.75;;
74196;SDS011;62555;52.678;4.900;2023-02-15T16:52:22;50.35;;;31.48;;
74196;SDS011;62555;52.678;4.900;2023-02-15T16:54:50;44.72;;;29.48;;
74196;SDS011;62555;52.678;4.900;2023-02-15T16:57:19;46.40;;;27.08;;
74196;SDS011;62555;52.678;4.900;2023-02-15T16:59:47;37.83;;;26.60;;
74196;SDS011;62555;52.678;4.900;2023-02-15T17:02:17;32.83;;;23.63;;
74196;SDS011;62555;52.678;4.900;2023-02-15T17:04:44;35.83;;;22.33;;
74196;SDS011;62555;52.678;4.900;2023-02-15T17:07:16;33.05;;;22.02;;
74196;SDS011;62555;52.678;4.900;2023-02-15T17:09:53;29.20;;;20.33;;
74196;SDS011;62555;52.678;4.900;2023-02-15T17:17:56;29.65;;;19.02;;
74196;SDS011;62555;52.678;4.900;2023-02-15T17:20:23;25.80;;;19.00;;
74196;SDS011;62555;52.678;4.900;2023-02-15T17:22:49;25.23;;;16.80;;
74196;SDS011;62555;52.678;4.900;2023-02-15T17:25:19;22.63;;;16.38;;
74196;SDS011;62555;52.678;4.900;2023-02-15T17:27:50;23.33;;;16.40;;
74196;SDS011;62555;52.678;4.900;2023-02-15T17:30:21;21.80;;;16.45;;
74196;SDS011;62555;52.678;4.900;2023-02-15T17:32:53;23.35;;;17.42;;
74196;SDS011;62555;52.678;4.900;2023-02-15T17:35:22;18.95;;;14.65;;
74196;SDS011;62555;52.678;4.900;2023-02-15T17:38:02;18.52;;;16.45;;
74196;SDS011;62555;52.678;4.900;2023-02-15T17:40:53;20.60;;;14.65;;
74196;SDS011;62555;52.678;4.900;2023-02-15T17:43:19;20.70;;;14.55;;
74196;SDS011;62555;52.678;4.900;2023-02-15T17:45:47;17.42;;;14.85;;
74196;SDS011;62555;52.678;4.900;2023-02-15T17:48:18;16.00;;;13.75;;
74196;SDS011;62555;52.678;4.900;2023-02-15T17:50:46;15.80;;;13.00;;
74196;SDS011;62555;52.678;4.900;2023-02-15T17:53:11;16.33;;;13.50;;
74196;SDS011;62555;52.678;4.900;2023-02-15T18:00:47;15.32;;;12.57;;
74196;SDS011;62555;52.678;4.900;2023-02-15T18:03:54;15.63;;;11.95;;
74196;SDS011;62555;52.678;4.900;2023-02-15T18:06:38;14.95;;;12.25;;
74196;SDS011;62555;52.678;4.900;2023-02-15T18:09:23;15.55;;;12.02;;
74196;SDS011;62555;52.678;4.900;2023-02-15T18:12:14;15.45;;;12.07;;
74196;SDS011;62555;52.678;4.900;2023-02-15T18:14:44;14.75;;;12.05;;
74196;SDS011;62555;52.678;4.900;2023-02-15T18:17:10;14.40;;;11.18;;